Time;durP1;ratioP1;P1;durP2;ratioP2;P2;SDS_P1;SDS_P2;PMS_P1;PMS_P2;Temp;Humidity;BMP_temperature;BMP_pressure;BME280_temperature;BME280_humidity;BME280_pressure;Samples;Min_cycle;Max_cycle;Signal;HPM_P1;HPM_P2
2022/02/16 00:00:32;;;;;;;33.70;14.10;;;;;;;-0.60;76.44;100179.61;25120;1313;3051067;-71
2022/02/16 00:03:01;;;;;;;30.30;13.60;;;;;;;-0.80;77.00;100178.30;25157;1313;3027507;-72
2022/02/16 00:05:30;;;;;;;22.90;11.80;;;;;;;-0.93;77.49;100181.94;25140;1313;3051641;-72
2022/02/16 00:07:59;;;;;;;25.20;12.10;;;;;;;-0.44;76.56;100172.30;25222;1312;3026361;-72
2022/02/16 00:10:28;;;;;;;25.20;12.50;;;;;;;-0.19;74.98;100167.71;25114;1313;3050998;-72
2022/02/16 00:12:58;;;;;;;23.80;11.80;;;;;;;-0.28;75.13;100167.59;25097;1313;3026541;-72
2022/02/16 00:15:28;;;;;;;25.60;11.80;;;;;;;-0.36;75.46;100165.40;25167;1313;3026637;-74
2022/02/16 00:17:57;;;;;;;28.00;14.80;;;;;;;-0.45;75.68;100158.03;25161;1313;3049382;-72
2022/02/16 00:20:28;;;;;;;29.80;15.60;;;;;;;-0.73;76.67;100154.86;25155;1313;3027133;-72
2022/02/16 00:22:57;;;;;;;27.10;13.90;;;;;;;-0.85;77.12;100154.91;25129;1316;3026413;-72
2022/02/16 00:25:25;;;;;;;29.60;14.20;;;;;;;-1.00;77.85;100154.44;25158;1313;3047040;-70
2022/02/16 00:27:56;;;;;;;25.00;13.50;;;;;;;-1.11;78.52;100146.55;25154;1313;3026279;-71
2022/02/16 00:30:25;;;;;;;18.80;9.70;;;;;;;-1.21;79.20;100151.55;25165;1313;3026902;-73
2022/02/16 00:32:55;;;;;;;20.80;9.80;;;;;;;-0.76;78.29;100150.58;25221;1312;3050791;-73
2022/02/16 00:35:24;;;;;;;26.60;11.80;;;;;;;-0.48;76.87;100154.08;25117;1313;3026546;-73
2022/02/16 00:37:53;;;;;;;25.00;11.50;;;;;;;-0.46;76.28;100154.59;25166;1313;3071172;-72
2022/02/16 00:40:22;;;;;;;23.60;12.30;;;;;;;-0.79;77.10;100159.36;25120;1313;3028518;-72
2022/02/16 00:42:51;;;;;;;23.80;12.70;;;;;;;-0.90;78.07;100156.30;25171;1313;3050945;-71
2022/02/16 00:45:20;;;;;;;24.10;12.80;;;;;;;-1.08;78.38;100157.04;25115;1313;3028410;-72
2022/02/16 00:47:50;;;;;;;28.70;14.00;;;;;;;-1.29;79.27;100152.60;25122;1313;3055622;-70
2022/02/16 00:50:19;;;;;;;29.00;14.10;;;;;;;-1.43;80.16;100154.84;25172;1312;3026840;-73
2022/02/16 00:52:48;;;;;;;24.80;10.40;;;;;;;-1.47;80.47;100153.13;25122;1312;3026451;-72
2022/02/16 00:55:18;;;;;;;22.10;11.30;;;;;;;-1.11;79.84;100149.48;25194;1313;3054748;-69
2022/02/16 00:57:47;;;;;;;28.10;12.00;;;;;;;-0.72;78.11;100145.92;25148;1313;3029602;-72
2022/02/16 01:00:16;;;;;;;26.10;14.10;;;;;;;-0.85;77.95;100139.43;25073;1313;3026499;-70
2022/02/16 01:02:50;;;;;;;23.80;13.80;;;;;;;-0.88;78.11;100135.48;25157;1313;3052997;-72
2022/02/16 01:05:19;;;;;;;27.50;15.30;;;;;;;-1.03;78.54;100133.98;25139;1313;3026699;-70
2022/02/16 01:07:48;;;;;;;31.70;14.40;;;;;;;-1.23;79.32;100137.11;25101;1312;3051282;-71
2022/02/16 01:10:18;;;;;;;35.50;16.00;;;;;;;-1.41;80.00;100141.61;25161;1314;3026977;-72
2022/02/16 01:12:54;;;;;;;33.10;15.40;;;;;;;-1.50;80.16;100143.15;25151;1313;3052005;-70
2022/02/16 01:15:24;;;;;;;25.00;12.20;;;;;;;-1.58;80.72;100143.00;25099;1313;3030184;-73
2022/02/16 01:17:54;;;;;;;30.40;13.90;;;;;;;-1.19;79.79;100135.90;25143;1313;3026597;-71
2022/02/16 01:20:28;;;;;;;35.10;14.90;;;;;;;-0.63;77.64;100132.30;25148;1313;3051679;-73
2022/02/16 01:23:00;;;;;;;29.90;15.60;;;;;;;-0.79;77.24;100133.39;25131;1313;3026508;-71
2022/02/16 01:25:29;;;;;;;33.50;16.20;;;;;;;-1.02;77.86;100130.71;25113;1316;3026097;-70
2022/02/16 01:28:00;;;;;;;31.90;16.70;;;;;;;-1.25;78.73;100132.64;25173;1313;3051640;-71
2022/02/16 01:30:32;;;;;;;31.50;15.80;;;;;;;-1.31;79.02;100136.44;25167;1313;3026908;-71
2022/02/16 01:33:08;;;;;;;33.70;17.10;;;;;;;-1.23;78.56;100136.94;25142;1313;3056533;-71
2022/02/16 01:35:47;;;;;;;31.60;14.90;;;;;;;-1.54;79.00;100132.52;25133;1313;3050200;-72
2022/02/16 01:38:17;;;;;;;33.30;17.30;;;;;;;-1.74;80.06;100134.06;25124;1313;3026757;-72
2022/02/16 01:41:15;;;;;;;28.80;14.80;;;;;;;-1.73;80.42;100125.98;25124;1313;3052187;-71
2022/02/16 01:43:51;;;;;;;25.80;12.90;;;;;;;-1.13;78.81;100121.61;25129;1313;3026528;-71
2022/02/16 01:46:21;;;;;;;31.90;15.50;;;;;;;-0.74;76.40;100120.13;25155;1313;3048307;-70
2022/02/16 01:48:52;;;;;;;29.60;15.70;;;;;;;-0.58;75.90;100123.85;25101;1313;3026609;-72
2022/02/16 01:51:22;;;;;;;29.80;15.30;;;;;;;-0.82;76.25;100127.72;25139;1312;3027402;-71
2022/02/16 01:53:51;;;;;;;26.30;15.40;;;;;;;-0.90;76.56;100137.20;25151;1313;3028233;-73
2022/02/16 01:56:22;;;;;;;28.80;14.60;;;;;;;-1.05;77.32;100144.13;25089;1313;3026392;-71
2022/02/16 01:58:52;;;;;;;28.70;15.00;;;;;;;-1.25;77.47;100140.20;25029;1318;3028495;-71
2022/02/16 02:01:46;;;;;;;;;;;;;;;-1.49;78.69;100140.40;25124;1313;3051664;-69
2022/02/16 02:04:16;;;;;;;26.20;13.80;;;;;;;-1.61;79.69;100139.05;25142;1313;3027011;-68
2022/02/16 02:06:45;;;;;;;28.00;15.10;;;;;;;-1.58;79.91;100140.76;25177;1313;3053007;-70
2022/02/16 02:09:14;;;;;;;20.90;11.00;;;;;;;-1.48;80.21;100141.10;25144;1313;3029347;-71
2022/02/16 02:11:43;;;;;;;23.20;12.50;;;;;;;-0.81;78.85;100141.82;25179;1313;3026755;-71
2022/02/16 02:14:16;;;;;;;22.70;11.80;;;;;;;-0.20;76.18;100137.77;25160;1313;3055439;-72
2022/02/16 02:17:06;;;;;;;23.90;12.60;;;;;;;0.14;74.98;100138.57;25140;1313;3049979;-72
2022/02/16 02:19:37;;;;;;;23.50;12.70;;;;;;;-0.14;75.24;100144.61;25217;1313;3026617;-73
2022/02/16 02:22:08;;;;;;;24.80;12.60;;;;;;;-0.54;76.23;100148.94;25155;1313;3026031;-71
2022/02/16 02:24:38;;;;;;;23.30;13.10;;;;;;;-0.79;77.31;100150.94;25155;1313;3026251;-75
2022/02/16 02:27:07;;;;;;;21.40;12.60;;;;;;;-1.11;78.58;100148.78;25153;1313;3067214;-73
2022/02/16 02:29:39;;;;;;;18.40;11.00;;;;;;;-1.03;79.59;100146.70;25148;1313;3027186;-72
2022/02/16 02:32:08;;;;;;;26.20;13.40;;;;;;;-0.96;78.98;100137.73;25200;1313;3051976;-72
2022/02/16 02:34:38;;;;;;;20.70;10.70;;;;;;;-1.18;79.61;100142.77;25096;1315;3027434;-74
2022/02/16 02:37:07;;;;;;;21.40;11.50;;;;;;;-0.87;79.50;100143.91;25168;1313;3029063;-73
2022/02/16 02:39:37;;;;;;;21.20;11.20;;;;;;;-0.38;77.64;100136.66;25188;1313;3051312;-72
2022/02/16 02:42:06;;;;;;;20.00;11.50;;;;;;;-0.27;76.77;100130.92;25107;1313;3028511;-73
2022/02/16 02:44:36;;;;;;;16.80;9.70;;;;;;;-0.33;76.82;100130.95;25206;1316;3053209;-72
2022/02/16 02:47:05;;;;;;;15.80;9.90;;;;;;;-0.37;76.51;100128.90;25207;1316;3028726;-72
2022/02/16 02:49:36;;;;;;;17.70;10.70;;;;;;;-0.68;77.45;100133.70;25135;1313;3027124;-72
2022/02/16 02:52:05;;;;;;;21.20;10.30;;;;;;;-0.83;78.33;100128.77;25244;1313;3028031;-70
2022/02/16 02:54:37;;;;;;;23.70;12.10;;;;;;;-0.84;78.81;100128.58;25185;1313;3053877;-70
2022/02/16 02:57:06;;;;;;;28.80;13.90;;;;;;;-0.91;79.08;100124.31;25134;1313;3026751;-72
2022/02/16 02:59:36;;;;;;;30.80;14.20;;;;;;;-1.15;79.98;100138.48;25215;1313;3052132;-73
2022/02/16 03:02:05;;;;;;;27.40;14.50;;;;;;;-0.83;79.92;100146.65;25218;1313;3028961;-73
2022/02/16 03:04:33;;;;;;;23.00;11.70;;;;;;;-0.49;78.70;100146.52;25185;1313;3049396;-71
2022/02/16 03:07:03;;;;;;;29.90;14.50;;;;;;;-0.18;77.63;100126.39;25153;1313;3027109;-74
2022/02/16 03:09:32;;;;;;;25.60;14.60;;;;;;;-0.52;77.82;100127.93;25100;1313;3059282;-72
2022/02/16 03:12:01;;;;;;;26.00;14.00;;;;;;;-0.98;79.00;100141.19;25133;1312;3026598;-74
2022/02/16 03:14:31;;;;;;;25.90;14.30;;;;;;;-0.93;79.37;100137.73;25151;1313;3053207;-73
2022/02/16 03:17:00;;;;;;;23.30;13.90;;;;;;;-0.91;79.37;100133.77;25117;1316;3026929;-72
2022/02/16 03:19:30;;;;;;;25.40;14.30;;;;;;;-1.06;79.52;100133.64;25173;1313;3026348;-72
2022/02/16 03:21:59;;;;;;;24.10;11.90;;;;;;;-1.23;80.31;100136.09;25176;1313;3055828;-73
2022/02/16 03:24:29;;;;;;;22.70;12.20;;;;;;;-0.77;79.15;100131.84;25188;1313;3026791;-73
2022/02/16 03:26:59;;;;;;;16.80;9.80;;;;;;;-0.84;78.59;100141.48;25125;1313;3028160;-70
2022/02/16 03:29:43;;;;;;;13.70;8.70;;;;;;;-0.68;78.28;100136.80;25183;1313;3055604;-72
2022/02/16 03:32:13;;;;;;;20.80;8.80;;;;;;;-0.78;77.77;100135.10;25136;1313;3026137;-72
2022/02/16 03:34:42;;;;;;;14.60;9.30;;;;;;;-1.17;78.95;100137.79;25104;1313;3048888;-71
2022/02/16 03:37:11;;;;;;;17.90;10.60;;;;;;;-1.18;79.12;100139.85;25129;1313;3029010;-72
2022/02/16 03:39:41;;;;;;;20.70;9.90;;;;;;;-1.16;79.53;100135.39;25124;1313;3058777;-72
2022/02/16 03:42:10;;;;;;;15.90;9.70;;;;;;;-1.37;80.05;100140.06;25155;1313;3026713;-71
2022/02/16 03:44:39;;;;;;;21.80;10.90;;;;;;;-1.28;80.12;100132.14;25148;1313;3049999;-71
2022/02/16 03:47:08;;;;;;;16.70;8.10;;;;;;;-1.47;80.70;100130.62;25164;1313;3027041;-71
2022/02/16 03:49:38;;;;;;;20.00;9.10;;;;;;;-0.88;79.45;100134.61;25126;1313;3026877;-74
2022/02/16 03:52:07;;;;;;;18.30;8.80;;;;;;;-0.39;77.55;100129.77;25146;1316;3028832;-72
2022/02/16 03:54:40;;;;;;;15.50;8.70;;;;;;;-0.16;76.25;100131.37;25106;1316;3056644;-73
2022/02/16 03:57:10;;;;;;;17.20;10.00;;;;;;;-0.08;76.20;100121.67;25145;1313;3026765;-73
2022/02/16 03:59:39;;;;;;;17.50;9.90;;;;;;;-0.12;76.12;100118.59;25152;1312;3028530;-72
2022/02/16 04:02:27;;;;;;;16.80;10.00;;;;;;;-0.27;76.51;100125.58;25181;1312;3058618;-70
2022/02/16 04:04:57;;;;;;;21.00;12.40;;;;;;;-0.58;77.32;100134.16;25148;1313;3027753;-72
2022/02/16 04:07:26;;;;;;;23.40;11.70;;;;;;;-0.74;78.51;100130.97;25129;1312;3026781;-70
2022/02/16 04:09:55;;;;;;;19.10;11.80;;;;;;;-0.72;78.61;100126.48;25147;1313;3057738;-71
2022/02/16 04:12:44;;;;;;;20.40;10.50;;;;;;;-0.73;78.79;100124.59;25135;1315;3050059;-71
2022/02/16 04:15:14;;;;;;;17.90;9.50;;;;;;;-0.18;77.68;100118.11;25179;1313;3026396;-73
2022/02/16 04:17:44;;;;;;;18.80;10.60;;;;;;;0.42;75.44;100116.30;25116;1313;3055790;-71
2022/02/16 04:20:15;;;;;;;18.60;10.10;;;;;;;0.15;74.88;100116.68;25164;1312;3026453;-71
2022/02/16 04:22:47;;;;;;;23.20;11.10;;;;;;;-0.17;75.99;100119.31;25138;1313;3027160;-71
2022/02/16 04:25:17;;;;;;;23.20;12.00;;;;;;;-0.09;76.33;100117.04;25169;1313;3028837;-72
2022/02/16 04:27:47;;;;;;;17.00;10.00;;;;;;;-0.31;76.90;100119.56;25166;1313;3026635;-72
2022/02/16 04:30:17;;;;;;;19.60;11.80;;;;;;;-0.32;77.23;100108.39;25113;1313;3026851;-73
2022/02/16 04:32:46;;;;;;;20.60;12.00;;;;;;;-0.32;77.15;100102.88;25124;1312;3027114;-70
2022/02/16 04:35:16;;;;;;;21.20;11.00;;;;;;;-0.29;76.95;100104.93;25134;1312;3026847;-70
2022/02/16 04:37:45;;;;;;;22.20;12.40;;;;;;;-0.55;77.65;100112.98;25158;1313;3030058;-73
2022/02/16 04:40:14;;;;;;;20.60;11.00;;;;;;;-0.63;78.55;100114.05;25175;1313;3051347;-72
2022/02/16 04:42:44;;;;;;;20.20;11.20;;;;;;;-0.07;77.54;100107.88;25176;1313;3027164;-71
2022/02/16 04:45:13;;;;;;;23.90;10.20;;;;;;;0.71;75.16;100108.27;25136;1313;3028965;-74
2022/02/16 04:47:43;;;;;;;21.80;12.70;;;;;;;0.63;74.12;100111.80;25167;1313;3051890;-73
2022/02/16 04:50:13;;;;;;;25.30;12.70;;;;;;;0.59;74.54;100113.38;25127;1313;3027368;-75
2022/02/16 04:52:42;;;;;;;26.10;13.30;;;;;;;0.30;75.35;100117.09;25116;1316;3026803;-74
2022/02/16 04:55:23;;;;;;;28.90;14.80;;;;;;;0.10;76.21;100116.19;25110;1313;3052895;-70
2022/02/16 04:57:53;;;;;;;27.00;13.60;;;;;;;0.13;76.37;100114.48;25146;1313;3027194;-74
2022/02/16 05:00:24;;;;;;;25.50;13.00;;;;;;;0.07;76.39;100115.88;25142;1313;3028460;-73
2022/02/16 05:02:59;;;;;;;26.50;14.10;;;;;;;0.09;76.50;100111.57;25155;1313;3071102;-75
2022/02/16 05:05:28;;;;;;;25.60;13.40;;;;;;;0.08;76.71;100095.55;25117;1313;3026975;-72
2022/02/16 05:07:57;;;;;;;30.20;14.80;;;;;;;0.16;76.76;100089.29;25163;1316;3029050;-73
2022/02/16 05:10:27;;;;;;;22.00;10.30;;;;;;;0.21;76.58;100099.75;25125;1316;3070559;-73
2022/02/16 05:13:06;;;;;;;21.50;11.40;;;;;;;0.85;74.86;100104.67;25130;1313;3051703;-73
2022/02/16 05:15:38;;;;;;;25.80;12.90;;;;;;;1.42;72.73;100118.34;25123;1313;3026594;-74
2022/02/16 05:18:07;;;;;;;27.70;13.80;;;;;;;1.53;71.59;100120.11;25139;1312;3030622;-72
2022/02/16 05:20:57;;;;;;;27.50;13.80;;;;;;;1.34;71.90;100124.48;25134;1316;3057698;-75
2022/02/16 05:23:29;;;;;;;29.10;14.10;;;;;;;1.29;71.90;100125.57;25171;1316;3026475;-78
2022/02/16 05:26:03;;;;;;;26.50;14.00;;;;;;;0.82;73.35;100125.41;25170;1313;3052696;-74
2022/02/16 05:28:34;;;;;;;28.00;14.70;;;;;;;0.71;74.10;100128.11;25131;1313;3026511;-74
2022/02/16 05:31:04;;;;;;;28.70;14.40;;;;;;;0.55;75.02;100138.08;25162;1313;3026341;-74
2022/02/16 05:33:34;;;;;;;31.60;15.30;;;;;;;0.48;75.63;100131.08;25157;1313;3026339;-72
2022/02/16 05:36:04;;;;;;;34.50;17.40;;;;;;;0.45;75.71;100134.20;25168;1313;3027238;-73
2022/02/16 05:38:35;;;;;;;37.90;17.60;;;;;;;0.47;75.94;100134.35;25221;1313;3027251;-74
2022/02/16 05:41:04;;;;;;;37.30;16.20;;;;;;;0.54;75.73;100129.98;25104;1316;3026106;-75
2022/02/16 05:43:33;;;;;;;29.20;15.00;;;;;;;0.44;76.30;100134.04;25121;1315;3027355;-74
2022/02/16 05:46:02;;;;;;;30.70;14.40;;;;;;;0.94;75.18;100131.98;25236;1315;3026478;-74
2022/02/16 05:48:31;;;;;;;42.30;18.50;;;;;;;1.67;73.07;100134.60;25166;1316;3056995;-73
2022/02/16 05:51:01;;;;;;;36.60;17.10;;;;;;;1.76;71.74;100135.50;25150;1316;3026749;-74
2022/02/16 05:53:31;;;;;;;44.50;18.70;;;;;;;1.76;71.70;100140.52;25166;1313;3027098;-74
2022/02/16 05:56:00;;;;;;;40.40;18.00;;;;;;;1.61;72.28;100138.99;25149;1313;3026457;-74
2022/02/16 05:58:30;;;;;;;45.40;20.40;;;;;;;1.51;72.37;100140.15;25131;1316;3049424;-73
2022/02/16 06:01:02;;;;;;;46.90;21.10;;;;;;;1.26;73.27;100142.70;25150;1313;3029605;-75
2022/02/16 06:03:43;;;;;;;45.20;20.30;;;;;;;1.27;73.77;100142.52;25142;1313;3054026;-73
2022/02/16 06:06:16;;;;;;;43.10;19.10;;;;;;;1.31;73.15;100145.23;25132;1313;3026284;-74
2022/02/16 06:08:46;;;;;;;50.60;19.80;;;;;;;1.36;72.81;100142.42;25168;1313;3026174;-73
2022/02/16 06:11:15;;;;;;;51.00;20.30;;;;;;;1.30;72.97;100138.51;25172;1316;3027313;-75
2022/02/16 06:13:45;;;;;;;45.10;20.10;;;;;;;1.29;73.47;100141.64;25125;1316;3028775;-74
2022/02/16 06:16:17;;;;;;;51.60;21.40;;;;;;;1.24;73.40;100141.35;25196;1313;3026207;-73
2022/02/16 06:18:46;;;;;;;47.60;20.30;;;;;;;1.25;73.78;100144.44;25128;1313;3027562;-73
2022/02/16 06:21:15;;;;;;;47.40;20.90;;;;;;;1.22;73.53;100143.96;25150;1316;3026589;-72
2022/02/16 06:23:44;;;;;;;45.70;19.40;;;;;;;1.28;73.86;100144.93;25120;1316;3055269;-73
2022/02/16 06:26:14;;;;;;;41.00;18.60;;;;;;;1.75;72.89;100139.33;25166;1316;3026848;-75
2022/02/16 06:28:44;;;;;;;48.00;20.30;;;;;;;2.49;70.72;100133.02;25126;1313;3056430;-73
2022/02/16 06:31:15;;;;;;;52.50;21.40;;;;;;;2.62;69.87;100129.16;25185;1317;3026632;-74
2022/02/16 06:33:44;;;;;;;52.80;22.20;;;;;;;2.60;69.73;100127.83;25162;1313;3026465;-74
2022/02/16 06:36:13;;;;;;;52.50;23.90;;;;;;;2.50;69.96;100128.69;25188;1313;3027017;-75
2022/02/16 06:38:44;;;;;;;55.80;25.20;;;;;;;2.40;70.09;100125.21;25127;1313;3058506;-74
2022/02/16 06:41:14;;;;;;;61.30;25.70;;;;;;;2.22;70.78;100127.23;25153;1316;3028694;-76
2022/02/16 06:43:43;;;;;;;63.60;23.40;;;;;;;2.05;71.25;100133.73;25152;1316;3026182;-75
2022/02/16 06:46:14;;;;;;;75.80;27.30;;;;;;;1.97;71.60;100135.73;25223;1313;3058502;-74
2022/02/16 06:48:44;;;;;;;82.50;32.20;;;;;;;1.93;71.78;100134.58;25156;1317;3027034;-75
2022/02/16 06:51:16;;;;;;;102.20;33.90;;;;;;;1.85;72.39;100135.38;25106;1316;3026280;-75
2022/02/16 06:53:45;;;;;;;103.50;35.80;;;;;;;1.80;72.54;100135.98;25166;1313;3057372;-75
2022/02/16 06:56:14;;;;;;;119.70;39.90;;;;;;;1.67;72.86;100135.80;25117;1316;3026476;-74
2022/02/16 06:59:03;;;;;;;95.50;33.00;;;;;;;1.44;73.77;100135.74;25086;1316;3055933;-75
2022/02/16 07:01:33;;;;;;;104.70;35.80;;;;;;;1.12;74.97;100139.92;25193;1316;3026833;-75
2022/02/16 07:04:03;;;;;;;113.80;36.50;;;;;;;0.84;75.84;100142.62;25173;1316;3026576;-74
2022/02/16 07:06:35;;;;;;;93.40;29.00;;;;;;;0.90;76.28;100145.17;25154;1313;3027062;-74
2022/02/16 07:09:10;;;;;;;99.80;32.10;;;;;;;1.47;74.42;100142.45;25172;1313;3054468;-75
2022/02/16 07:11:39;;;;;;;101.60;32.20;;;;;;;1.81;72.85;100131.11;25154;1316;3026599;-75
2022/02/16 07:14:10;;;;;;;99.00;31.80;;;;;;;2.01;71.78;100109.08;25212;1313;3048648;-75
2022/02/16 07:16:39;;;;;;;88.20;30.00;;;;;;;1.95;71.57;100065.09;25176;1316;3026754;-75
2022/02/16 07:19:09;;;;;;;95.70;32.20;;;;;;;2.01;71.92;100066.38;25194;1313;3026145;-74
2022/02/16 07:21:42;;;;;;;95.10;33.90;;;;;;;1.78;72.40;100098.01;25125;1316;3026771;-74
2022/02/16 07:24:11;;;;;;;104.70;34.20;;;;;;;1.80;72.74;100097.98;25139;1315;3030167;-73
2022/02/16 07:26:41;;;;;;;96.30;34.80;;;;;;;1.85;72.49;100104.98;25149;1313;3026700;-74
2022/02/16 07:29:10;;;;;;;99.50;37.30;;;;;;;2.02;72.22;100104.55;25137;1315;3026749;-73
2022/02/16 07:31:40;;;;;;;107.40;35.80;;;;;;;2.24;71.84;100100.91;25108;1313;3026450;-73
2022/02/16 07:34:09;;;;;;;102.50;35.00;;;;;;;2.29;71.98;100099.81;25186;1313;3027490;-74
2022/02/16 07:36:39;;;;;;;92.80;32.00;;;;;;;2.43;72.10;100103.20;25161;1313;3026233;-74
2022/02/16 07:39:08;;;;;;;86.30;30.50;;;;;;;2.47;71.51;100100.89;25067;1316;3026851;-75
2022/02/16 07:41:37;;;;;;;87.40;31.60;;;;;;;2.42;71.57;100096.13;25123;1316;3026693;-73
2022/02/16 07:44:35;;;;;;;78.00;28.30;;;;;;;2.52;71.88;100089.73;25185;1313;3055247;-73
2022/02/16 07:47:09;;;;;;;;;;;;;;;2.51;71.52;100083.53;25143;1313;3051979;-75
2022/02/16 07:49:39;;;;;;;77.50;26.30;;;;;;;2.46;71.45;100080.16;25114;1313;3026710;-75
2022/02/16 07:52:33;;;;;;;74.20;26.70;;;;;;;2.53;71.56;100083.51;25120;1313;3052681;-75
2022/02/16 07:55:16;;;;;;;77.90;28.50;;;;;;;2.58;71.32;100084.44;25131;1313;3051435;-74
2022/02/16 07:57:47;;;;;;;81.70;28.50;;;;;;;2.62;71.42;100079.70;25164;1316;3026157;-74
2022/02/16 08:00:17;;;;;;;68.80;25.60;;;;;;;3.09;69.95;100078.80;25181;1313;3026695;-74
2022/02/16 08:03:01;;;;;;;65.10;27.10;;;;;;;3.77;67.41;100082.73;25149;1316;3052911;-74
2022/02/16 08:05:31;;;;;;;79.30;30.20;;;;;;;3.97;66.37;100087.64;25206;1313;3026670;-73
2022/02/16 08:08:00;;;;;;;74.10;28.00;;;;;;;3.71;66.28;100093.25;25091;1316;3026592;-75
2022/02/16 08:10:30;;;;;;;73.00;25.80;;;;;;;3.47;66.44;100093.26;25160;1313;3054684;-74
2022/02/16 08:13:00;;;;;;;64.40;26.60;;;;;;;3.27;66.01;100091.59;25112;1313;3029059;-73
2022/02/16 08:15:39;;;;;;;67.40;25.50;;;;;;;3.43;66.71;100081.58;25149;1319;3071803;-73
2022/02/16 08:18:09;;;;;;;73.00;28.90;;;;;;;3.43;66.89;100071.00;25118;1316;3026900;-73
2022/02/16 08:20:38;;;;;;;70.70;27.50;;;;;;;3.45;67.06;100075.11;25137;1313;3026273;-74
2022/02/16 08:23:30;;;;;;;81.90;29.80;;;;;;;3.45;66.74;100072.68;25135;1313;3051416;-73
2022/02/16 08:26:00;;;;;;;79.70;30.30;;;;;;;3.41;66.69;100067.58;25145;1313;3026896;-74
2022/02/16 08:28:31;;;;;;;82.80;28.60;;;;;;;3.24;67.13;100073.81;25143;1313;3027025;-72
2022/02/16 08:31:01;;;;;;;67.40;27.60;;;;;;;3.17;66.79;100073.80;25117;1319;3027286;-75
2022/02/16 08:33:48;;;;;;;67.20;25.30;;;;;;;3.07;67.50;100071.41;25110;1313;3051781;-75
2022/02/16 08:36:18;;;;;;;66.00;24.90;;;;;;;3.08;66.97;100068.61;25096;1313;3026737;-75
2022/02/16 08:38:47;;;;;;;82.30;27.30;;;;;;;3.08;67.15;100061.52;25152;1313;3026968;-75
2022/02/16 08:41:16;;;;;;;71.20;24.70;;;;;;;3.08;66.76;100062.71;25112;1313;3053291;-74
2022/02/16 08:43:46;;;;;;;83.00;26.80;;;;;;;3.16;66.85;100059.79;25152;1313;3026445;-72
2022/02/16 08:46:15;;;;;;;95.10;29.10;;;;;;;3.11;67.42;100052.80;25170;1313;3056655;-75
2022/02/16 08:48:45;;;;;;;78.00;27.20;;;;;;;3.17;66.87;100045.94;25162;1313;3026448;-72
2022/02/16 08:51:15;;;;;;;93.10;31.90;;;;;;;3.34;66.17;100041.06;25154;1313;3026368;-75
2022/02/16 08:53:44;;;;;;;98.30;29.60;;;;;;;3.39;66.04;100041.99;25169;1315;3026562;-75
2022/02/16 08:56:13;;;;;;;68.20;25.60;;;;;;;3.49;65.66;100038.83;25178;1315;3026847;-74
2022/02/16 08:58:42;;;;;;;62.90;23.40;;;;;;;3.64;65.16;100040.20;25091;1315;3070477;-75
2022/02/16 09:01:11;;;;;;;64.10;21.70;;;;;;;3.78;64.24;100043.37;25164;1316;3029100;-75
2022/02/16 09:03:40;;;;;;;58.30;22.10;;;;;;;3.63;64.06;100041.79;25191;1316;3050701;-78
2022/02/16 09:06:10;;;;;;;48.40;20.10;;;;;;;3.72;63.66;100033.45;25137;1315;3026331;-79
2022/02/16 09:08:40;;;;;;;61.50;21.70;;;;;;;3.75;63.01;100025.92;25135;1313;3055297;-64
2022/02/16 09:11:10;;;;;;;52.30;19.50;;;;;;;3.86;63.11;100018.41;25167;1315;3026675;-74
2022/02/16 09:13:54;;;;;;;53.20;20.00;;;;;;;3.98;62.81;100011.69;25112;1316;3071788;-74
2022/02/16 09:16:23;;;;;;;60.60;22.20;;;;;;;4.00;62.60;100011.45;25164;1313;3026576;-75
2022/02/16 09:18:52;;;;;;;61.60;22.70;;;;;;;4.04;63.06;100017.80;25099;1315;3054442;-73
2022/02/16 09:21:22;;;;;;;58.10;22.00;;;;;;;4.11;62.55;100024.91;25118;1316;3028001;-75
2022/02/16 09:23:51;;;;;;;59.40;21.20;;;;;;;4.30;62.25;100025.97;25140;1313;3027071;-75
2022/02/16 09:26:20;;;;;;;57.40;21.60;;;;;;;4.37;61.50;100028.90;25215;1314;3050987;-75
2022/02/16 09:28:49;;;;;;;60.50;22.70;;;;;;;4.34;61.45;100025.52;25156;1314;3026057;-75
2022/02/16 09:31:17;;;;;;;67.10;22.50;;;;;;;4.37;61.58;100023.89;25221;1313;3054522;-76
2022/02/16 09:33:46;;;;;;;76.50;25.90;;;;;;;4.27;62.28;100026.41;25125;1316;3026904;-74
2022/02/16 09:36:22;;;;;;;71.80;26.00;;;;;;;4.19;62.54;100023.30;16514;1316;3052152;-77
2022/02/16 09:42:01;;;;;;;54.30;19.70;;;;;;;4.25;62.93;100020.52;12284;1321;3057014;-75
2022/02/16 09:45:26;;;;;;;86.90;34.40;;;;;;;4.38;61.90;100017.27;12937;1317;3068862;-72
2022/02/16 09:48:26;;;;;;;68.60;25.50;;;;;;;4.43;60.63;100009.50;22524;1317;3069437;-74
2022/02/16 09:50:55;;;;;;;61.40;23.50;;;;;;;4.38;60.76;100004.09;25090;1319;3026387;-75
2022/02/16 09:53:24;;;;;;;66.80;25.00;;;;;;;4.19;61.16;100000.08;25681;1318;3028257;-75
2022/02/16 09:55:53;;;;;;;65.60;24.00;;;;;;;4.27;60.97;99996.75;24978;1314;3051386;-74
2022/02/16 09:58:22;;;;;;;61.80;23.40;;;;;;;4.28;60.95;99998.98;25120;1316;3026574;-73
2022/02/16 10:01:04;;;;;;;68.50;26.00;;;;;;;4.28;60.85;99996.20;25137;1315;3053856;-75
2022/02/16 10:03:34;;;;;;;82.30;25.60;;;;;;;4.23;61.23;99990.61;25185;1315;3054694;-73
2022/02/16 10:06:03;;;;;;;67.10;23.90;;;;;;;4.33;61.01;99995.02;25124;1315;3029909;-74
2022/02/16 10:08:43;;;;;;;56.10;22.10;;;;;;;4.29;60.71;99983.86;25094;1315;3026845;-73
2022/02/16 10:11:14;;;;;;;64.80;24.30;;;;;;;4.33;60.92;99979.94;25119;1315;3052019;-74
2022/02/16 10:13:43;;;;;;;65.20;23.50;;;;;;;4.27;61.32;99974.86;25196;1315;3026811;-72
2022/02/16 10:16:12;;;;;;;62.20;22.40;;;;;;;4.16;61.44;99969.83;25115;1316;3026952;-76
2022/02/16 10:18:55;;;;;;;61.80;22.50;;;;;;;4.24;61.58;99967.33;25162;1315;3026794;-73
2022/02/16 10:21:24;;;;;;;56.60;21.40;;;;;;;4.39;61.58;99964.50;25122;1315;3050842;-73
2022/02/16 10:23:53;;;;;;;64.00;22.50;;;;;;;4.65;61.22;99956.34;25129;1315;3029473;-74
2022/02/16 10:26:46;;;;;;;56.40;21.20;;;;;;;4.84;60.94;99951.08;25124;1315;3052955;-74
2022/02/16 10:29:23;;;;;;;72.20;22.70;;;;;;;4.89;60.53;99951.67;25134;1315;3049529;-74
2022/02/16 10:31:58;;;;;;;57.60;20.30;;;;;;;4.83;60.59;99948.17;25123;1315;3069884;-72
2022/02/16 10:35:03;;;;;;;60.10;21.20;;;;;;;4.98;60.17;99939.73;25174;1315;3027254;-72
2022/02/16 10:37:39;;;;;;;50.60;19.00;;;;;;;4.89;60.36;99933.23;25084;1318;3055457;-73
2022/02/16 10:40:10;;;;;;;48.30;19.40;;;;;;;4.88;60.29;99931.90;25101;1312;3051413;-73
2022/02/16 10:42:54;;;;;;;56.90;19.80;;;;;;;4.73;60.49;99925.05;25139;1315;3028209;-73
2022/02/16 10:45:25;;;;;;;51.40;17.80;;;;;;;4.72;60.56;99927.16;25138;1312;3049985;-73
2022/02/16 10:48:02;;;;;;;50.40;19.50;;;;;;;4.71;60.57;99922.15;25118;1312;3026895;-73
2022/02/16 10:50:32;;;;;;;52.90;19.70;;;;;;;4.54;61.54;99931.12;25186;1312;3053661;-73
2022/02/16 10:53:03;;;;;;;57.90;20.70;;;;;;;4.60;61.26;99927.68;25099;1312;3026388;-74
2022/02/16 10:55:48;;;;;;;55.10;20.50;;;;;;;4.38;61.98;99931.05;25132;1312;3056432;-74
2022/02/16 10:58:22;;;;;;;65.60;22.40;;;;;;;4.62;61.69;99927.63;25185;1312;3051038;-73
2022/02/16 11:00:53;;;;;;;64.10;22.00;;;;;;;4.58;61.63;99925.80;25124;1316;3068127;-74
2022/02/16 11:03:36;;;;;;;49.00;20.50;;;;;;;4.64;61.52;99919.41;25125;1315;3026919;-75
2022/02/16 11:06:07;;;;;;;54.60;21.10;;;;;;;4.67;61.34;99914.81;25161;1312;3052341;-74
2022/02/16 11:08:36;;;;;;;59.70;22.00;;;;;;;4.70;61.66;99913.33;25142;1315;3026300;-75
2022/02/16 11:11:06;;;;;;;61.80;23.40;;;;;;;4.81;61.31;99905.54;25150;1315;3026772;-74
2022/02/16 11:13:37;;;;;;;61.60;23.30;;;;;;;4.77;61.45;99898.73;25141;1312;3026630;-74
2022/02/16 11:16:06;;;;;;;64.50;23.00;;;;;;;4.79;61.67;99899.35;25121;1314;3026346;-71
2022/02/16 11:18:48;;;;;;;64.90;25.00;;;;;;;4.89;61.54;99893.31;25123;1315;3026392;-74
2022/02/16 11:21:21;;;;;;;69.40;27.20;;;;;;;4.75;61.97;99885.76;25120;1315;3069554;-71
2022/02/16 11:25:28;;;;;;;68.50;26.20;;;;;;;4.89;61.59;99879.27;31538;1321;3026261;-73